Bellflower, California
Current Conditions -  °F | °C
As of 4:53 AM on Monday 20 Oct 2014 (Local Time) from KLGB Reporting Station
Overcast Overcast  
Wind Chill: 67°   Ceiling: 1500
Heat Index: 67°   Visibility: 10mi
Dew Point: 62°   Wind: 0mph
Humidity: 84%   Direction: NA
Pressure: 29.89"   Gusts: NA
Location:  33.88°N, 118.12°W
Report Text: KLGB 201153Z 00000KT 10SM OVC015 19/17 A2989 RMK AO2 SLP119 T01940167 10200 20178 55001
Loading
Personal Weather Stations






























Interactive Weather Map
Tropical Storm Tracking
New forecast layout! Learn more

10-Day Weather Forecast

Advertisements
Track Severe Weather on mobile